This is the latest recevied weather packets stored in our database for station/object KA3WVU. If no packets are shown the sender has not sent any weather packets the latest 10 day(s).
| Time | Temp. | Humidity | Pressure | Rain* | Wind** | Luminosity | Snow |
|---|---|---|---|---|---|---|---|
| 1777909796 | 16.67° C | 47% | 1010.2 hPa | 0 mm | - | 445 W/m² | - |
| 1777909492 | 16.67° C | 46% | 1010.4 hPa | 0 mm | - | 347 W/m² | - |
| 1777909190 | 16.11° C | 47% | 1010.3 hPa | 0 mm | - | 523 W/m² | - |
| 1777908888 | 16.11° C | 48% | 1010.4 hPa | 0 mm | - | 316 W/m² | - |
| 1777908585 | 16.11° C | 47% | 1010.4 hPa | 0 mm | - | 232 W/m² | - |
| 1777908282 | 15.56° C | 48% | 1010.3 hPa | 0 mm | - | 398 W/m² | - |
| 1777907978 | 15.56° C | 48% | 1010.4 hPa | 0 mm | - | 547 W/m² | - |
| 1777907674 | 15.56° C | 49% | 1010.4 hPa | 0 mm | - | 579 W/m² | - |
| 1777907369 | 15° C | 49% | 1010.5 hPa | 0 mm | - | 452 W/m² | - |
| 1777907066 | 15.56° C | 48% | 1010.5 hPa | 0 mm | - | 591 W/m² | - |
| 1777906764 | 15.56° C | 46% | 1010.8 hPa | 0 mm | - | 611 W/m² | - |
| 1777906460 | 14.44° C | 51% | 1010.5 hPa | 0 mm | - | 521 W/m² | - |
| 1777906157 | 15° C | 49% | 1010.6 hPa | 0 mm | - | 524 W/m² | - |
| 1777905854 | 15° C | 50% | 1010.6 hPa | 0 mm | - | 496 W/m² | - |
| 1777905550 | 14.44° C | 49% | 1010.6 hPa | 0 mm | - | 586 W/m² | - |
| 1777905248 | 14.44° C | 50% | 1010.6 hPa | 0 mm | - | 564 W/m² | - |
| 1777904945 | 14.44° C | 49% | 1010.9 hPa | 0 mm | - | 457 W/m² | - |
| 1777904642 | 13.89° C | 50% | 1010.8 hPa | 0 mm | - | 296 W/m² | - |
| 1777904339 | 13.33° C | 51% | 1010.8 hPa | 0 mm | - | 278 W/m² | - |
| 1777904036 | 13.89° C | 50% | 1010.6 hPa | 0 mm | - | 353 W/m² | - |
| 1777903732 | 12.78° C | 52% | 1010.8 hPa | 0 mm | - | 542 W/m² | - |
| 1777903428 | 12.78° C | 53% | 1010.9 hPa | 0 mm | - | 161 W/m² | - |
| 1777903125 | 12.78° C | 53% | 1011.1 hPa | 0 mm | - | 398 W/m² | - |
| 1777902822 | 12.22° C | 54% | 1010.9 hPa | 0 mm | - | 354 W/m² | - |
| 1777902519 | 12.22° C | 53% | 1010.9 hPa | 0 mm | - | 180 W/m² | - |
* Rain latest hour (hover to see other rain measurements)
** Current wind speed in m/s (hover to see current wind gust speed)